sensor_id;sensor_type;location;lat;lon;timestamp;P1;durP1;ratioP1;P2;durP2;ratioP2
75550;SDS011;65071;53.082;18.218;2023-03-14T00:01:21;3.60;;;2.30;;
75550;SDS011;65071;53.082;18.218;2023-03-14T00:03:48;3.50;;;2.10;;
75550;SDS011;65071;53.082;18.218;2023-03-14T00:06:16;5.90;;;2.60;;
75550;SDS011;65071;53.082;18.218;2023-03-14T00:08:44;7.00;;;3.20;;
75550;SDS011;65071;53.082;18.218;2023-03-14T00:11:12;6.70;;;3.10;;
75550;SDS011;65071;53.082;18.218;2023-03-14T00:13:49;3.30;;;2.30;;
75550;SDS011;65071;53.082;18.218;2023-03-14T00:16:17;4.80;;;2.50;;
75550;SDS011;65071;53.082;18.218;2023-03-14T00:18:45;5.30;;;2.60;;
75550;SDS011;65071;53.082;18.218;2023-03-14T00:21:11;5.70;;;2.80;;
75550;SDS011;65071;53.082;18.218;2023-03-14T00:23:39;4.50;;;2.50;;
75550;SDS011;65071;53.082;18.218;2023-03-14T00:26:08;5.70;;;2.40;;
75550;SDS011;65071;53.082;18.218;2023-03-14T00:28:37;5.20;;;2.40;;
75550;SDS011;65071;53.082;18.218;2023-03-14T00:31:05;6.50;;;2.90;;
75550;SDS011;65071;53.082;18.218;2023-03-14T00:33:33;4.20;;;2.40;;
75550;SDS011;65071;53.082;18.218;2023-03-14T00:36:01;4.10;;;2.30;;
75550;SDS011;65071;53.082;18.218;2023-03-14T00:38:31;3.60;;;2.60;;
75550;SDS011;65071;53.082;18.218;2023-03-14T00:40:58;3.80;;;2.30;;
75550;SDS011;65071;53.082;18.218;2023-03-14T00:43:26;6.00;;;2.60;;
75550;SDS011;65071;53.082;18.218;2023-03-14T00:45:52;6.10;;;2.60;;
75550;SDS011;65071;53.082;18.218;2023-03-14T00:48:19;4.60;;;2.30;;
75550;SDS011;65071;53.082;18.218;2023-03-14T00:50:47;5.40;;;2.90;;
75550;SDS011;65071;53.082;18.218;2023-03-14T00:53:15;5.90;;;3.10;;
75550;SDS011;65071;53.082;18.218;2023-03-14T00:55:43;4.80;;;2.80;;
75550;SDS011;65071;53.082;18.218;2023-03-14T00:58:11;5.70;;;2.70;;
75550;SDS011;65071;53.082;18.218;2023-03-14T01:00:39;4.90;;;2.70;;
75550;SDS011;65071;53.082;18.218;2023-03-14T01:03:07;4.70;;;2.40;;
75550;SDS011;65071;53.082;18.218;2023-03-14T01:05:34;5.70;;;3.10;;
75550;SDS011;65071;53.082;18.218;2023-03-14T01:08:01;5.90;;;2.50;;
75550;SDS011;65071;53.082;18.218;2023-03-14T01:10:28;7.10;;;2.50;;
75550;SDS011;65071;53.082;18.218;2023-03-14T01:12:55;6.30;;;3.10;;
75550;SDS011;65071;53.082;18.218;2023-03-14T01:15:22;5.60;;;2.70;;
75550;SDS011;65071;53.082;18.218;2023-03-14T01:17:49;3.80;;;2.50;;
75550;SDS011;65071;53.082;18.218;2023-03-14T01:20:16;5.10;;;2.60;;
75550;SDS011;65071;53.082;18.218;2023-03-14T01:22:43;5.70;;;3.40;;
75550;SDS011;65071;53.082;18.218;2023-03-14T01:25:12;4.80;;;2.20;;
75550;SDS011;65071;53.082;18.218;2023-03-14T01:27:40;4.90;;;2.70;;
75550;SDS011;65071;53.082;18.218;2023-03-14T01:30:07;4.80;;;2.60;;
75550;SDS011;65071;53.082;18.218;2023-03-14T01:32:35;3.10;;;2.10;;
75550;SDS011;65071;53.082;18.218;2023-03-14T01:35:02;4.30;;;2.20;;
75550;SDS011;65071;53.082;18.218;2023-03-14T01:37:29;5.20;;;2.50;;
75550;SDS011;65071;53.082;18.218;2023-03-14T01:39:56;5.30;;;2.70;;
75550;SDS011;65071;53.082;18.218;2023-03-14T01:42:23;5.10;;;2.70;;
75550;SDS011;65071;53.082;18.218;2023-03-14T01:47:21;6.10;;;3.10;;
75550;SDS011;65071;53.082;18.218;2023-03-14T01:50:01;3.50;;;1.80;;
75550;SDS011;65071;53.082;18.218;2023-03-14T01:52:37;4.20;;;2.50;;
75550;SDS011;65071;53.082;18.218;2023-03-14T01:57:44;3.10;;;1.80;;
75550;SDS011;65071;53.082;18.218;2023-03-14T02:00:15;4.30;;;2.00;;
75550;SDS011;65071;53.082;18.218;2023-03-14T02:02:48;3.70;;;1.90;;
75550;SDS011;65071;53.082;18.218;2023-03-14T02:05:21;3.60;;;1.80;;
75550;SDS011;65071;53.082;18.218;2023-03-14T02:07:59;3.30;;;1.80;;
75550;SDS011;65071;53.082;18.218;2023-03-14T02:10:32;2.40;;;1.40;;
75550;SDS011;65071;53.082;18.218;2023-03-14T02:13:08;2.10;;;1.60;;
75550;SDS011;65071;53.082;18.218;2023-03-14T02:15:47;2.00;;;1.30;;
75550;SDS011;65071;53.082;18.218;2023-03-14T02:18:32;1.90;;;1.10;;
75550;SDS011;65071;53.082;18.218;2023-03-14T02:21:20;1.70;;;1.00;;
75550;SDS011;65071;53.082;18.218;2023-03-14T02:24:09;2.70;;;1.20;;
75550;SDS011;65071;53.082;18.218;2023-03-14T02:27:05;1.80;;;1.00;;
75550;SDS011;65071;53.082;18.218;2023-03-14T02:29:36;1.30;;;0.90;;
75550;SDS011;65071;53.082;18.218;2023-03-14T02:32:07;3.50;;;1.20;;
75550;SDS011;65071;53.082;18.218;2023-03-14T02:34:34;2.60;;;1.10;;
75550;SDS011;65071;53.082;18.218;2023-03-14T02:37:01;2.60;;;1.50;;
75550;SDS011;65071;53.082;18.218;2023-03-14T02:39:32;1.60;;;1.10;;
75550;SDS011;65071;53.082;18.218;2023-03-14T02:42:02;1.90;;;1.00;;
75550;SDS011;65071;53.082;18.218;2023-03-14T02:44:29;1.60;;;0.80;;
75550;SDS011;65071;53.082;18.218;2023-03-14T02:46:56;1.40;;;0.70;;
75550;SDS011;65071;53.082;18.218;2023-03-14T02:49:23;2.40;;;0.70;;
75550;SDS011;65071;53.082;18.218;2023-03-14T02:51:53;1.30;;;0.90;;
75550;SDS011;65071;53.082;18.218;2023-03-14T02:54:20;2.10;;;1.10;;
75550;SDS011;65071;53.082;18.218;2023-03-14T02:56:47;1.50;;;1.00;;
75550;SDS011;65071;53.082;18.218;2023-03-14T02:59:14;1.20;;;0.90;;
75550;SDS011;65071;53.082;18.218;2023-03-14T03:01:45;2.10;;;1.20;;
75550;SDS011;65071;53.082;18.218;2023-03-14T03:04:12;2.00;;;1.10;;
75550;SDS011;65071;53.082;18.218;2023-03-14T03:06:38;1.60;;;0.80;;
75550;SDS011;65071;53.082;18.218;2023-03-14T03:09:05;1.60;;;0.80;;
75550;SDS011;65071;53.082;18.218;2023-03-14T03:11:32;0.80;;;0.60;;
75550;SDS011;65071;53.082;18.218;2023-03-14T03:13:58;1.60;;;1.00;;
75550;SDS011;65071;53.082;18.218;2023-03-14T03:16:26;1.20;;;0.70;;
75550;SDS011;65071;53.082;18.218;2023-03-14T03:18:53;3.00;;;1.00;;
75550;SDS011;65071;53.082;18.218;2023-03-14T03:21:20;1.50;;;1.00;;
75550;SDS011;65071;53.082;18.218;2023-03-14T03:23:49;2.80;;;0.90;;
75550;SDS011;65071;53.082;18.218;2023-03-14T03:26:16;1.20;;;0.80;;
75550;SDS011;65071;53.082;18.218;2023-03-14T03:28:43;1.70;;;1.00;;
75550;SDS011;65071;53.082;18.218;2023-03-14T03:31:11;1.70;;;1.00;;
75550;SDS011;65071;53.082;18.218;2023-03-14T03:33:38;2.90;;;1.00;;
75550;SDS011;65071;53.082;18.218;2023-03-14T03:36:05;1.60;;;0.70;;
75550;SDS011;65071;53.082;18.218;2023-03-14T03:38:35;1.70;;;1.00;;
75550;SDS011;65071;53.082;18.218;2023-03-14T03:41:06;1.00;;;0.60;;
75550;SDS011;65071;53.082;18.218;2023-03-14T03:43:35;1.00;;;0.80;;
75550;SDS011;65071;53.082;18.218;2023-03-14T03:46:03;1.10;;;0.60;;
75550;SDS011;65071;53.082;18.218;2023-03-14T03:48:31;0.80;;;0.60;;
75550;SDS011;65071;53.082;18.218;2023-03-14T03:50:58;0.80;;;0.50;;
75550;SDS011;65071;53.082;18.218;2023-03-14T03:53:25;1.20;;;0.70;;
75550;SDS011;65071;53.082;18.218;2023-03-14T03:55:51;1.70;;;0.70;;
75550;SDS011;65071;53.082;18.218;2023-03-14T03:58:18;1.20;;;0.90;;
75550;SDS011;65071;53.082;18.218;2023-03-14T04:00:45;2.20;;;1.00;;
75550;SDS011;65071;53.082;18.218;2023-03-14T04:03:12;2.80;;;1.20;;
75550;SDS011;65071;53.082;18.218;2023-03-14T04:05:39;1.90;;;1.00;;
75550;SDS011;65071;53.082;18.218;2023-03-14T04:08:08;2.80;;;1.10;;
75550;SDS011;65071;53.082;18.218;2023-03-14T04:10:35;3.70;;;1.30;;
75550;SDS011;65071;53.082;18.218;2023-03-14T04:13:09;2.90;;;1.00;;
75550;SDS011;65071;53.082;18.218;2023-03-14T04:15:38;1.50;;;1.00;;
75550;SDS011;65071;53.082;18.218;2023-03-14T04:18:13;1.50;;;0.70;;
75550;SDS011;65071;53.082;18.218;2023-03-14T04:20:39;2.90;;;1.00;;
75550;SDS011;65071;53.082;18.218;2023-03-14T04:23:06;1.30;;;0.80;;
75550;SDS011;65071;53.082;18.218;2023-03-14T04:25:33;2.30;;;1.00;;
75550;SDS011;65071;53.082;18.218;2023-03-14T04:28:03;1.20;;;0.80;;
75550;SDS011;65071;53.082;18.218;2023-03-14T04:30:30;1.20;;;1.10;;
75550;SDS011;65071;53.082;18.218;2023-03-14T04:33:05;1.50;;;1.00;;
75550;SDS011;65071;53.082;18.218;2023-03-14T04:35:35;1.90;;;1.10;;
75550;SDS011;65071;53.082;18.218;2023-03-14T04:38:07;2.00;;;1.00;;
75550;SDS011;65071;53.082;18.218;2023-03-14T04:40:36;2.00;;;1.20;;
75550;SDS011;65071;53.082;18.218;2023-03-14T04:43:05;2.30;;;1.30;;
75550;SDS011;65071;53.082;18.218;2023-03-14T04:45:33;2.60;;;1.50;;
75550;SDS011;65071;53.082;18.218;2023-03-14T04:48:02;2.20;;;1.30;;
75550;SDS011;65071;53.082;18.218;2023-03-14T04:50:29;1.60;;;1.10;;
75550;SDS011;65071;53.082;18.218;2023-03-14T04:52:56;2.30;;;1.60;;
75550;SDS011;65071;53.082;18.218;2023-03-14T04:55:23;2.10;;;1.50;;
75550;SDS011;65071;53.082;18.218;2023-03-14T04:57:50;2.70;;;1.50;;
75550;SDS011;65071;53.082;18.218;2023-03-14T05:00:16;1.70;;;1.00;;
75550;SDS011;65071;53.082;18.218;2023-03-14T05:02:52;4.70;;;2.10;;
75550;SDS011;65071;53.082;18.218;2023-03-14T05:05:33;2.50;;;1.40;;
75550;SDS011;65071;53.082;18.218;2023-03-14T05:08:02;2.80;;;1.60;;
75550;SDS011;65071;53.082;18.218;2023-03-14T05:10:51;2.10;;;1.50;;
75550;SDS011;65071;53.082;18.218;2023-03-14T05:13:46;3.90;;;1.80;;
75550;SDS011;65071;53.082;18.218;2023-03-14T05:16:31;2.50;;;1.70;;
75550;SDS011;65071;53.082;18.218;2023-03-14T05:19:10;3.80;;;2.00;;
75550;SDS011;65071;53.082;18.218;2023-03-14T05:22:02;2.70;;;1.60;;
75550;SDS011;65071;53.082;18.218;2023-03-14T05:24:47;3.30;;;1.80;;
75550;SDS011;65071;53.082;18.218;2023-03-14T05:27:34;2.40;;;1.80;;
75550;SDS011;65071;53.082;18.218;2023-03-14T05:30:21;2.40;;;1.90;;
75550;SDS011;65071;53.082;18.218;2023-03-14T05:33:07;4.30;;;2.30;;
75550;SDS011;65071;53.082;18.218;2023-03-14T05:35:44;4.10;;;2.30;;
75550;SDS011;65071;53.082;18.218;2023-03-14T05:38:20;3.50;;;2.50;;
75550;SDS011;65071;53.082;18.218;2023-03-14T05:41:05;5.50;;;2.30;;
75550;SDS011;65071;53.082;18.218;2023-03-14T05:46:53;3.90;;;1.90;;
75550;SDS011;65071;53.082;18.218;2023-03-14T05:49:40;3.70;;;1.80;;
75550;SDS011;65071;53.082;18.218;2023-03-14T05:52:27;3.80;;;2.30;;
75550;SDS011;65071;53.082;18.218;2023-03-14T05:55:06;3.80;;;2.60;;
75550;SDS011;65071;53.082;18.218;2023-03-14T06:00:42;4.70;;;2.00;;
75550;SDS011;65071;53.082;18.218;2023-03-14T06:03:28;3.30;;;2.20;;
75550;SDS011;65071;53.082;18.218;2023-03-14T06:05:54;5.50;;;2.50;;
75550;SDS011;65071;53.082;18.218;2023-03-14T06:08:22;3.10;;;2.20;;
75550;SDS011;65071;53.082;18.218;2023-03-14T06:10:49;3.80;;;2.90;;
75550;SDS011;65071;53.082;18.218;2023-03-14T06:13:15;3.60;;;2.20;;
75550;SDS011;65071;53.082;18.218;2023-03-14T06:15:43;4.10;;;3.00;;
75550;SDS011;65071;53.082;18.218;2023-03-14T06:18:10;3.30;;;2.50;;
75550;SDS011;65071;53.082;18.218;2023-03-14T06:20:36;3.80;;;2.40;;
75550;SDS011;65071;53.082;18.218;2023-03-14T06:23:06;4.10;;;2.20;;
75550;SDS011;65071;53.082;18.218;2023-03-14T06:25:34;3.60;;;2.10;;
75550;SDS011;65071;53.082;18.218;2023-03-14T06:28:01;2.50;;;1.90;;
75550;SDS011;65071;53.082;18.218;2023-03-14T06:30:28;4.00;;;2.40;;
75550;SDS011;65071;53.082;18.218;2023-03-14T06:32:55;3.20;;;2.00;;
75550;SDS011;65071;53.082;18.218;2023-03-14T06:35:22;4.20;;;2.80;;
75550;SDS011;65071;53.082;18.218;2023-03-14T06:37:49;4.60;;;2.90;;
75550;SDS011;65071;53.082;18.218;2023-03-14T06:40:18;3.60;;;2.50;;
75550;SDS011;65071;53.082;18.218;2023-03-14T06:42:51;3.90;;;2.20;;
75550;SDS011;65071;53.082;18.218;2023-03-14T06:45:18;4.40;;;2.50;;
75550;SDS011;65071;53.082;18.218;2023-03-14T06:47:45;3.50;;;2.60;;
75550;SDS011;65071;53.082;18.218;2023-03-14T06:50:12;3.70;;;2.60;;
75550;SDS011;65071;53.082;18.218;2023-03-14T06:52:39;6.10;;;3.10;;
75550;SDS011;65071;53.082;18.218;2023-03-14T06:55:14;4.70;;;3.00;;
75550;SDS011;65071;53.082;18.218;2023-03-14T06:57:42;5.20;;;3.70;;
75550;SDS011;65071;53.082;18.218;2023-03-14T07:00:10;4.70;;;2.90;;
75550;SDS011;65071;53.082;18.218;2023-03-14T07:02:39;4.30;;;2.70;;
75550;SDS011;65071;53.082;18.218;2023-03-14T07:05:06;7.40;;;4.00;;
75550;SDS011;65071;53.082;18.218;2023-03-14T07:07:34;7.20;;;3.10;;
75550;SDS011;65071;53.082;18.218;2023-03-14T07:10:00;5.30;;;2.90;;
75550;SDS011;65071;53.082;18.218;2023-03-14T07:12:28;3.60;;;2.70;;
75550;SDS011;65071;53.082;18.218;2023-03-14T07:14:54;6.10;;;2.80;;
75550;SDS011;65071;53.082;18.218;2023-03-14T07:17:21;2.80;;;2.30;;
75550;SDS011;65071;53.082;18.218;2023-03-14T07:19:48;6.50;;;2.90;;
75550;SDS011;65071;53.082;18.218;2023-03-14T07:22:14;5.00;;;2.90;;
75550;SDS011;65071;53.082;18.218;2023-03-14T07:24:41;4.40;;;2.90;;
75550;SDS011;65071;53.082;18.218;2023-03-14T07:27:08;6.60;;;3.00;;
75550;SDS011;65071;53.082;18.218;2023-03-14T07:29:34;6.30;;;2.60;;
75550;SDS011;65071;53.082;18.218;2023-03-14T07:32:02;4.80;;;3.00;;
75550;SDS011;65071;53.082;18.218;2023-03-14T07:34:29;4.90;;;2.70;;
75550;SDS011;65071;53.082;18.218;2023-03-14T07:36:56;5.70;;;2.80;;
75550;SDS011;65071;53.082;18.218;2023-03-14T07:39:22;5.40;;;3.10;;
75550;SDS011;65071;53.082;18.218;2023-03-14T07:41:58;6.40;;;3.10;;
75550;SDS011;65071;53.082;18.218;2023-03-14T07:44:25;6.00;;;2.60;;
75550;SDS011;65071;53.082;18.218;2023-03-14T07:46:51;6.80;;;3.10;;
75550;SDS011;65071;53.082;18.218;2023-03-14T07:49:18;4.00;;;2.50;;
75550;SDS011;65071;53.082;18.218;2023-03-14T07:51:48;4.50;;;2.90;;
75550;SDS011;65071;53.082;18.218;2023-03-14T07:54:15;6.00;;;2.90;;
75550;SDS011;65071;53.082;18.218;2023-03-14T07:56:42;6.90;;;4.10;;
75550;SDS011;65071;53.082;18.218;2023-03-14T07:59:09;4.20;;;2.80;;
75550;SDS011;65071;53.082;18.218;2023-03-14T08:01:35;3.80;;;2.20;;
75550;SDS011;65071;53.082;18.218;2023-03-14T08:04:02;2.60;;;1.70;;
75550;SDS011;65071;53.082;18.218;2023-03-14T08:06:29;2.40;;;1.80;;
75550;SDS011;65071;53.082;18.218;2023-03-14T08:08:55;3.80;;;2.50;;
75550;SDS011;65071;53.082;18.218;2023-03-14T08:11:22;3.70;;;2.20;;
75550;SDS011;65071;53.082;18.218;2023-03-14T08:13:48;4.90;;;2.30;;
75550;SDS011;65071;53.082;18.218;2023-03-14T08:16:17;2.90;;;1.70;;
75550;SDS011;65071;53.082;18.218;2023-03-14T08:18:44;3.90;;;1.70;;
75550;SDS011;65071;53.082;18.218;2023-03-14T08:21:11;2.70;;;1.80;;
75550;SDS011;65071;53.082;18.218;2023-03-14T08:23:38;3.60;;;2.10;;
75550;SDS011;65071;53.082;18.218;2023-03-14T08:26:05;2.80;;;1.80;;
75550;SDS011;65071;53.082;18.218;2023-03-14T08:39:51;3.90;;;2.00;;
75550;SDS011;65071;53.082;18.218;2023-03-14T08:42:18;3.40;;;2.20;;
75550;SDS011;65071;53.082;18.218;2023-03-14T08:44:44;4.30;;;2.30;;
75550;SDS011;65071;53.082;18.218;2023-03-14T08:50:48;3.40;;;1.90;;
75550;SDS011;65071;53.082;18.218;2023-03-14T08:56:13;4.50;;;1.40;;
75550;SDS011;65071;53.082;18.218;2023-03-14T08:58:40;3.20;;;2.00;;
75550;SDS011;65071;53.082;18.218;2023-03-14T09:04:45;2.20;;;1.30;;
75550;SDS011;65071;53.082;18.218;2023-03-14T09:07:11;2.50;;;1.30;;
75550;SDS011;65071;53.082;18.218;2023-03-14T09:12:37;3.10;;;1.50;;
75550;SDS011;65071;53.082;18.218;2023-03-14T09:18:03;2.20;;;1.50;;
75550;SDS011;65071;53.082;18.218;2023-03-14T09:20:29;1.90;;;1.10;;
75550;SDS011;65071;53.082;18.218;2023-03-14T09:25:55;2.70;;;1.40;;
75550;SDS011;65071;53.082;18.218;2023-03-14T09:28:26;1.90;;;1.20;;
75550;SDS011;65071;53.082;18.218;2023-03-14T09:30:53;1.60;;;1.50;;
75550;SDS011;65071;53.082;18.218;2023-03-14T09:33:20;2.30;;;1.40;;
75550;SDS011;65071;53.082;18.218;2023-03-14T09:35:48;2.20;;;1.40;;
75550;SDS011;65071;53.082;18.218;2023-03-14T09:38:14;1.90;;;1.30;;
75550;SDS011;65071;53.082;18.218;2023-03-14T09:40:42;1.80;;;1.30;;
75550;SDS011;65071;53.082;18.218;2023-03-14T09:43:09;1.90;;;1.30;;
75550;SDS011;65071;53.082;18.218;2023-03-14T09:45:40;3.50;;;1.50;;
75550;SDS011;65071;53.082;18.218;2023-03-14T09:48:14;1.90;;;1.30;;
75550;SDS011;65071;53.082;18.218;2023-03-14T09:50:46;2.20;;;1.20;;
75550;SDS011;65071;53.082;18.218;2023-03-14T09:53:17;2.60;;;1.20;;
75550;SDS011;65071;53.082;18.218;2023-03-14T09:55:45;2.10;;;1.20;;
75550;SDS011;65071;53.082;18.218;2023-03-14T09:58:21;3.10;;;1.40;;
75550;SDS011;65071;53.082;18.218;2023-03-14T10:00:49;3.00;;;1.70;;
75550;SDS011;65071;53.082;18.218;2023-03-14T10:06:01;2.50;;;1.30;;
75550;SDS011;65071;53.082;18.218;2023-03-14T10:08:36;2.70;;;1.30;;
75550;SDS011;65071;53.082;18.218;2023-03-14T10:11:05;2.60;;;1.60;;
75550;SDS011;65071;53.082;18.218;2023-03-14T10:13:33;3.30;;;1.70;;
75550;SDS011;65071;53.082;18.218;2023-03-14T10:16:01;3.50;;;1.30;;
75550;SDS011;65071;53.082;18.218;2023-03-14T10:18:30;3.10;;;1.50;;
75550;SDS011;65071;53.082;18.218;2023-03-14T10:24:09;2.10;;;1.10;;
75550;SDS011;65071;53.082;18.218;2023-03-14T10:26:52;2.30;;;1.40;;
75550;SDS011;65071;53.082;18.218;2023-03-14T10:29:20;1.50;;;1.00;;
75550;SDS011;65071;53.082;18.218;2023-03-14T10:31:51;1.90;;;1.10;;
75550;SDS011;65071;53.082;18.218;2023-03-14T10:34:24;3.10;;;1.40;;
75550;SDS011;65071;53.082;18.218;2023-03-14T10:36:53;4.10;;;1.20;;
75550;SDS011;65071;53.082;18.218;2023-03-14T10:42:03;2.10;;;1.10;;
75550;SDS011;65071;53.082;18.218;2023-03-14T10:56:19;3.00;;;1.50;;
75550;SDS011;65071;53.082;18.218;2023-03-14T10:59:33;3.70;;;1.50;;
75550;SDS011;65071;53.082;18.218;2023-03-14T11:06:56;2.60;;;1.40;;
75550;SDS011;65071;53.082;18.218;2023-03-14T11:09:56;2.50;;;1.10;;
75550;SDS011;65071;53.082;18.218;2023-03-14T11:20:41;4.20;;;1.10;;
75550;SDS011;65071;53.082;18.218;2023-03-14T11:23:23;1.90;;;1.00;;
75550;SDS011;65071;53.082;18.218;2023-03-14T11:31:05;2.60;;;1.20;;
75550;SDS011;65071;53.082;18.218;2023-03-14T11:33:56;1.70;;;1.00;;
75550;SDS011;65071;53.082;18.218;2023-03-14T11:36:34;2.80;;;1.10;;
75550;SDS011;65071;53.082;18.218;2023-03-14T11:39:11;3.00;;;1.30;;
75550;SDS011;65071;53.082;18.218;2023-03-14T11:41:43;1.80;;;1.40;;
75550;SDS011;65071;53.082;18.218;2023-03-14T11:47:07;3.60;;;1.20;;
75550;SDS011;65071;53.082;18.218;2023-03-14T11:52:32;2.30;;;1.00;;
75550;SDS011;65071;53.082;18.218;2023-03-14T12:00:57;1.90;;;1.20;;
75550;SDS011;65071;53.082;18.218;2023-03-14T12:03:43;2.50;;;1.10;;
75550;SDS011;65071;53.082;18.218;2023-03-14T12:09:16;2.40;;;1.30;;
75550;SDS011;65071;53.082;18.218;2023-03-14T12:20:12;3.80;;;1.20;;
75550;SDS011;65071;53.082;18.218;2023-03-14T12:25:16;3.50;;;1.20;;
75550;SDS011;65071;53.082;18.218;2023-03-14T12:30:28;5.30;;;2.50;;
75550;SDS011;65071;53.082;18.218;2023-03-14T12:33:28;2.50;;;1.40;;
75550;SDS011;65071;53.082;18.218;2023-03-14T12:36:00;1.80;;;1.10;;
75550;SDS011;65071;53.082;18.218;2023-03-14T12:41:29;4.00;;;1.30;;
75550;SDS011;65071;53.082;18.218;2023-03-14T12:47:39;2.60;;;1.80;;
75550;SDS011;65071;53.082;18.218;2023-03-14T12:49:46;4.40;;;1.60;;
75550;SDS011;65071;53.082;18.218;2023-03-14T12:52:30;3.20;;;1.50;;
75550;SDS011;65071;53.082;18.218;2023-03-14T12:55:13;3.90;;;1.90;;
75550;SDS011;65071;53.082;18.218;2023-03-14T13:00:18;3.50;;;1.70;;
75550;SDS011;65071;53.082;18.218;2023-03-14T13:02:48;3.10;;;1.20;;
75550;SDS011;65071;53.082;18.218;2023-03-14T13:05:22;3.80;;;1.80;;
75550;SDS011;65071;53.082;18.218;2023-03-14T13:10:18;2.50;;;1.30;;
75550;SDS011;65071;53.082;18.218;2023-03-14T13:15:31;6.20;;;1.50;;
75550;SDS011;65071;53.082;18.218;2023-03-14T13:18:02;2.90;;;1.30;;
75550;SDS011;65071;53.082;18.218;2023-03-14T13:20:37;2.40;;;1.20;;
75550;SDS011;65071;53.082;18.218;2023-03-14T13:23:21;3.10;;;1.30;;
75550;SDS011;65071;53.082;18.218;2023-03-14T13:25:50;2.30;;;1.20;;
75550;SDS011;65071;53.082;18.218;2023-03-14T13:28:17;3.10;;;1.50;;
75550;SDS011;65071;53.082;18.218;2023-03-14T13:30:45;4.00;;;1.20;;
75550;SDS011;65071;53.082;18.218;2023-03-14T13:33:15;3.50;;;1.50;;
75550;SDS011;65071;53.082;18.218;2023-03-14T13:35:45;1.30;;;0.90;;
75550;SDS011;65071;53.082;18.218;2023-03-14T13:38:24;2.20;;;0.90;;
75550;SDS011;65071;53.082;18.218;2023-03-14T13:40:57;2.90;;;1.30;;
75550;SDS011;65071;53.082;18.218;2023-03-14T13:46:04;2.30;;;1.80;;
75550;SDS011;65071;53.082;18.218;2023-03-14T13:48:32;2.90;;;1.30;;
75550;SDS011;65071;53.082;18.218;2023-03-14T13:51:11;2.10;;;1.20;;
75550;SDS011;65071;53.082;18.218;2023-03-14T13:53:43;2.20;;;1.20;;
75550;SDS011;65071;53.082;18.218;2023-03-14T13:56:10;3.60;;;2.00;;
75550;SDS011;65071;53.082;18.218;2023-03-14T13:58:39;3.50;;;1.50;;
75550;SDS011;65071;53.082;18.218;2023-03-14T14:01:12;2.50;;;1.40;;
75550;SDS011;65071;53.082;18.218;2023-03-14T14:03:42;2.10;;;1.40;;
75550;SDS011;65071;53.082;18.218;2023-03-14T14:06:19;4.00;;;1.90;;
75550;SDS011;65071;53.082;18.218;2023-03-14T14:08:52;4.80;;;1.60;;
75550;SDS011;65071;53.082;18.218;2023-03-14T14:11:21;4.00;;;1.60;;
75550;SDS011;65071;53.082;18.218;2023-03-14T14:13:55;2.90;;;1.20;;
75550;SDS011;65071;53.082;18.218;2023-03-14T14:16:23;2.90;;;1.70;;
75550;SDS011;65071;53.082;18.218;2023-03-14T14:18:52;3.20;;;1.40;;
75550;SDS011;65071;53.082;18.218;2023-03-14T14:21:21;4.60;;;1.60;;
75550;SDS011;65071;53.082;18.218;2023-03-14T14:23:49;2.30;;;1.30;;
75550;SDS011;65071;53.082;18.218;2023-03-14T14:26:16;3.30;;;2.10;;
75550;SDS011;65071;53.082;18.218;2023-03-14T14:28:45;3.30;;;1.90;;
75550;SDS011;65071;53.082;18.218;2023-03-14T14:31:22;4.60;;;2.80;;
75550;SDS011;65071;53.082;18.218;2023-03-14T14:33:55;4.30;;;2.50;;
75550;SDS011;65071;53.082;18.218;2023-03-14T14:41:32;3.80;;;1.60;;
75550;SDS011;65071;53.082;18.218;2023-03-14T14:44:02;2.50;;;1.50;;
75550;SDS011;65071;53.082;18.218;2023-03-14T14:46:30;3.30;;;1.60;;
75550;SDS011;65071;53.082;18.218;2023-03-14T14:49:03;4.00;;;1.80;;
75550;SDS011;65071;53.082;18.218;2023-03-14T14:51:38;3.30;;;1.50;;
75550;SDS011;65071;53.082;18.218;2023-03-14T14:54:12;4.10;;;2.10;;
75550;SDS011;65071;53.082;18.218;2023-03-14T14:56:44;3.40;;;2.30;;
75550;SDS011;65071;53.082;18.218;2023-03-14T14:59:21;3.40;;;1.70;;
75550;SDS011;65071;53.082;18.218;2023-03-14T15:02:00;4.10;;;1.80;;
75550;SDS011;65071;53.082;18.218;2023-03-14T15:04:31;3.50;;;1.70;;
75550;SDS011;65071;53.082;18.218;2023-03-14T15:06:58;3.90;;;1.50;;
75550;SDS011;65071;53.082;18.218;2023-03-14T15:09:24;2.10;;;1.00;;
75550;SDS011;65071;53.082;18.218;2023-03-14T15:11:52;2.20;;;1.30;;
75550;SDS011;65071;53.082;18.218;2023-03-14T15:14:18;2.60;;;1.40;;
75550;SDS011;65071;53.082;18.218;2023-03-14T15:16:45;3.00;;;1.30;;
75550;SDS011;65071;53.082;18.218;2023-03-14T15:19:16;3.00;;;1.00;;
75550;SDS011;65071;53.082;18.218;2023-03-14T15:21:53;1.70;;;0.80;;
75550;SDS011;65071;53.082;18.218;2023-03-14T15:24:20;4.10;;;1.00;;
75550;SDS011;65071;53.082;18.218;2023-03-14T15:26:47;3.00;;;0.90;;
75550;SDS011;65071;53.082;18.218;2023-03-14T15:29:14;2.10;;;0.60;;
75550;SDS011;65071;53.082;18.218;2023-03-14T15:31:41;4.00;;;1.00;;
75550;SDS011;65071;53.082;18.218;2023-03-14T15:34:10;2.10;;;0.70;;
75550;SDS011;65071;53.082;18.218;2023-03-14T15:36:37;2.10;;;0.70;;
75550;SDS011;65071;53.082;18.218;2023-03-14T15:39:05;3.00;;;1.20;;
75550;SDS011;65071;53.082;18.218;2023-03-14T15:41:33;2.50;;;1.10;;
75550;SDS011;65071;53.082;18.218;2023-03-14T15:44:00;3.20;;;1.00;;
75550;SDS011;65071;53.082;18.218;2023-03-14T15:46:27;3.50;;;1.10;;
75550;SDS011;65071;53.082;18.218;2023-03-14T15:48:54;3.70;;;1.30;;
75550;SDS011;65071;53.082;18.218;2023-03-14T15:51:20;2.50;;;1.40;;
75550;SDS011;65071;53.082;18.218;2023-03-14T15:53:47;2.70;;;1.20;;
75550;SDS011;65071;53.082;18.218;2023-03-14T15:56:15;3.40;;;1.30;;
75550;SDS011;65071;53.082;18.218;2023-03-14T15:58:44;2.90;;;1.60;;
75550;SDS011;65071;53.082;18.218;2023-03-14T16:01:13;3.70;;;2.00;;
75550;SDS011;65071;53.082;18.218;2023-03-14T16:06:10;4.10;;;1.70;;
75550;SDS011;65071;53.082;18.218;2023-03-14T16:08:37;4.50;;;2.00;;
75550;SDS011;65071;53.082;18.218;2023-03-14T16:11:04;2.60;;;1.70;;
75550;SDS011;65071;53.082;18.218;2023-03-14T16:13:31;4.00;;;1.70;;
75550;SDS011;65071;53.082;18.218;2023-03-14T16:15:59;7.30;;;2.60;;
75550;SDS011;65071;53.082;18.218;2023-03-14T16:18:28;4.40;;;1.60;;
75550;SDS011;65071;53.082;18.218;2023-03-14T16:20:58;5.40;;;2.30;;
75550;SDS011;65071;53.082;18.218;2023-03-14T16:23:32;4.00;;;2.40;;
75550;SDS011;65071;53.082;18.218;2023-03-14T16:26:03;4.90;;;2.50;;
75550;SDS011;65071;53.082;18.218;2023-03-14T16:28:30;4.30;;;2.40;;
75550;SDS011;65071;53.082;18.218;2023-03-14T16:31:05;5.10;;;3.10;;
75550;SDS011;65071;53.082;18.218;2023-03-14T16:33:33;4.40;;;2.10;;
75550;SDS011;65071;53.082;18.218;2023-03-14T16:36:01;9.30;;;4.00;;
75550;SDS011;65071;53.082;18.218;2023-03-14T16:38:34;5.10;;;3.30;;
75550;SDS011;65071;53.082;18.218;2023-03-14T16:41:06;4.90;;;2.70;;
75550;SDS011;65071;53.082;18.218;2023-03-14T16:43:35;6.90;;;2.90;;
75550;SDS011;65071;53.082;18.218;2023-03-14T16:46:03;5.70;;;2.80;;
75550;SDS011;65071;53.082;18.218;2023-03-14T16:48:32;8.20;;;3.10;;
75550;SDS011;65071;53.082;18.218;2023-03-14T16:50:59;7.60;;;3.20;;
75550;SDS011;65071;53.082;18.218;2023-03-14T16:53:26;5.10;;;2.40;;
75550;SDS011;65071;53.082;18.218;2023-03-14T16:55:55;5.10;;;2.20;;
75550;SDS011;65071;53.082;18.218;2023-03-14T16:58:23;5.80;;;2.80;;
75550;SDS011;65071;53.082;18.218;2023-03-14T17:00:50;3.50;;;2.00;;
75550;SDS011;65071;53.082;18.218;2023-03-14T17:03:18;5.30;;;2.10;;
75550;SDS011;65071;53.082;18.218;2023-03-14T17:05:46;4.90;;;2.00;;